메인 페이지
METAR-TAF:

METAR-TAF

공항 :

Cedar City, 유타, 미국

위도: 37-42-24N, 경도: 113-05-48W, 고도: 1715m

현재 날씨관측

예보는 1 시간 26분 전, 13:53시(UTC)에 발표되었습니다.
무풍
온도 13°C
습도 44%
기압 1021 hPa
시정: 16.1km
맑음

METAR: KCDC 241353Z AUTO 00000KT 10SM CLR 13/01 A3016 RMK AO2 SLP154 T01330006

시각: 09:19 (15:19 UTC)

예보

예보는 3 시간 59분 전, 11:20시(UTC)에 발표되었습니다.
예보 대상 시간: 24일 12시부터 25일 12시까지 (UTC)
남남동6kt
시정: 10km
맑음
24일 1800시부터 (UTC)
남남서11kt, 순간 최대 풍속 17kt
시정: 10km
맑음
25일 0300시부터 (UTC)
남남동7kt
시정: 10km
맑음

TAF: KCDC 241120Z 2412/2512 15006KT P6SM SKC FM241800 21011G17KT P6SM SKC FM250300 16007KT P6SM SKC

4,000개 이상의 공항 관측 자료 및 예보 (METAR 및 TAF 보고).

지도상에서 검색 가능한 기상관측소가 노란 점과 빨간 점으로 표시되어 있습니다.

기상관측소 명을 보려면 표시 위로 마우스를 이동하세요.

날씨 관측과 예보를 보려면 클릭하세요.

지도 변경 : 확대하려면 엑스 표시가 있는 녹색 버튼, 축소하려면 빼기 표시가 있는 녹색 버튼, 다음 페이지의 지도를 보려면 녹색 화살표를 클릭하세요.


METAR-TAF: